Time;durP1;ratioP1;P1;durP2;ratioP2;P2;SDS_P1;SDS_P2;PMS_P1;PMS_P2;Temp;Humidity;BMP_temperature;BMP_pressure;BME280_temperature;BME280_humidity;BME280_pressure;Samples;Min_cycle;Max_cycle;Signal;HPM_P1;HPM_P2
2023/01/01 00:00:17;;;;;;;651.57;612.63;;;15.40;99.90;;;;;;5087662;28;20385;-60
2023/01/01 00:02:43;;;;;;;668.53;628.30;;;15.50;99.90;;;;;;5089009;28;20789;-60
2023/01/01 00:05:08;;;;;;;669.35;628.75;;;15.50;99.90;;;;;;5088728;28;20916;-61
2023/01/01 00:07:34;;;;;;;654.57;615.53;;;15.50;99.90;;;;;;5087928;28;20386;-60
2023/01/01 00:12:44;;;;;;;690.88;648.63;;;15.50;99.90;;;;;;5087441;28;20574;-60
2023/01/01 00:15:09;;;;;;;671.80;631.43;;;15.50;99.90;;;;;;5089610;28;20378;-61
2023/01/01 00:17:35;;;;;;;686.28;644.28;;;15.50;99.90;;;;;;5088026;28;20955;-61
2023/01/01 00:20:00;;;;;;;691.97;650.47;;;15.50;99.90;;;;;;5085456;28;20389;-62
2023/01/01 00:22:26;;;;;;;532.20;502.63;;;15.60;99.90;;;;;;5082328;28;20522;-60
2023/01/01 00:24:51;;;;;;;539.67;509.77;;;15.50;99.90;;;;;;5081739;28;20475;-60
2023/01/01 00:27:17;;;;;;;514.73;487.17;;;15.60;99.90;;;;;;5083319;28;20453;-61
2023/01/01 00:29:43;;;;;;;556.58;525.58;;;15.50;99.90;;;;;;5082767;28;20374;-61
2023/01/01 00:32:08;;;;;;;554.22;523.80;;;15.50;99.90;;;;;;5083744;28;20386;-61
2023/01/01 00:34:33;;;;;;;556.50;525.30;;;15.50;99.90;;;;;;5085529;28;20965;-59
2023/01/01 00:36:59;;;;;;;564.13;532.13;;;15.60;99.90;;;;;;5087009;28;20731;-60
2023/01/01 00:39:25;;;;;;;551.90;521.87;;;15.50;99.90;;;;;;5087630;28;20376;-61
2023/01/01 00:41:50;;;;;;;585.33;551.77;;;15.50;99.90;;;;;;5087525;28;20403;-61
2023/01/01 00:44:16;;;;;;;604.30;569.35;;;15.50;99.90;;;;;;5105212;28;20695;-61
2023/01/01 00:46:42;;;;;;;599.78;565.45;;;15.50;99.90;;;;;;5087918;28;20388;-60
2023/01/01 00:49:07;;;;;;;621.80;586.03;;;15.50;99.90;;;;;;5086508;28;20415;-60
2023/01/01 00:51:33;;;;;;;653.53;614.37;;;15.60;99.90;;;;;;5088101;28;20388;-61
2023/01/01 00:53:59;;;;;;;555.88;524.58;;;15.60;99.90;;;;;;5087827;28;20428;-60
2023/01/01 00:56:24;;;;;;;576.53;543.67;;;15.60;99.90;;;;;;5111683;28;20446;-60
2023/01/01 00:58:50;;;;;;;561.07;529.73;;;15.60;99.90;;;;;;5092379;28;20384;-59
2023/01/01 01:01:15;;;;;;;570.50;538.70;;;15.60;99.90;;;;;;5092700;28;20636;-60
2023/01/01 01:03:41;;;;;;;555.17;523.90;;;15.60;99.90;;;;;;5092986;28;20517;-60
2023/01/01 01:06:09;;;;;;;573.43;540.47;;;15.50;99.90;;;;;;5110665;28;20410;-60
2023/01/01 01:08:37;;;;;;;534.90;504.88;;;15.50;99.90;;;;;;5089031;28;20676;-62
2023/01/01 01:11:23;;;;;;;534.75;504.92;;;15.50;99.90;;;;;;5088404;27;20395;-60
2023/01/01 01:13:50;;;;;;;533.78;505.00;;;15.60;99.90;;;;;;5089601;28;20426;-61
2023/01/01 01:16:21;;;;;;;548.33;517.88;;;15.60;99.90;;;;;;5091311;28;20684;-61
2023/01/01 01:18:50;;;;;;;589.35;554.60;;;15.50;99.90;;;;;;5107445;28;20391;-61
2023/01/01 01:21:19;;;;;;;542.92;512.42;;;15.60;99.90;;;;;;5090318;28;20438;-61
2023/01/01 01:23:46;;;;;;;572.25;539.83;;;15.60;99.90;;;;;;5088888;28;20779;-60
2023/01/01 01:26:15;;;;;;;563.03;532.05;;;15.70;99.90;;;;;;5088494;28;20384;-60
2023/01/01 01:28:41;;;;;;;546.55;516.55;;;15.70;99.90;;;;;;5108140;28;20391;-60
2023/01/01 01:31:07;;;;;;;545.30;515.50;;;15.70;99.90;;;;;;5108791;28;20392;-60
2023/01/01 01:33:32;;;;;;;537.53;507.53;;;15.70;99.90;;;;;;5087581;28;20426;-59
2023/01/01 01:35:58;;;;;;;537.38;507.95;;;15.70;99.90;;;;;;5089050;28;20401;-61
2023/01/01 01:38:24;;;;;;;551.83;521.33;;;15.70;99.90;;;;;;5089727;28;20503;-61
2023/01/01 01:40:50;;;;;;;548.37;518.07;;;15.70;99.90;;;;;;5085932;28;20382;-61
2023/01/01 01:43:25;;;;;;;556.35;525.72;;;15.70;99.90;;;;;;5086448;28;20386;-60
2023/01/01 01:46:09;;;;;;;568.95;537.05;;;15.70;99.90;;;;;;5085909;28;20390;-59
2023/01/01 01:48:47;;;;;;;516.78;488.98;;;15.70;99.90;;;;;;5084370;28;20812;-60
2023/01/01 01:51:15;;;;;;;531.03;501.92;;;15.70;99.90;;;;;;5082703;28;20917;-59
2023/01/01 01:53:46;;;;;;;526.05;497.42;;;15.60;99.90;;;;;;5082743;28;20424;-59
2023/01/01 01:56:20;;;;;;;546.65;516.50;;;15.60;99.90;;;;;;5082975;28;20442;-60
2023/01/01 01:58:46;;;;;;;505.40;477.77;;;15.60;99.90;;;;;;5082964;28;20374;-59
2023/01/01 02:01:11;;;;;;;499.30;473.30;;;15.60;99.90;;;;;;5085184;28;20393;-59
2023/01/01 02:04:04;;;;;;;522.57;493.80;;;15.60;99.90;;;;;;5086988;28;20390;-59
2023/01/01 02:06:31;;;;;;;516.72;489.30;;;15.60;99.90;;;;;;5084363;28;20485;-60
2023/01/01 02:08:59;;;;;;;484.58;458.67;;;15.70;99.90;;;;;;5087740;28;20512;-61
2023/01/01 02:11:25;;;;;;;538.53;509.02;;;15.70;99.90;;;;;;5087475;28;20386;-59
2023/01/01 02:13:52;;;;;;;511.27;483.97;;;15.60;99.90;;;;;;5087572;28;20476;-59
2023/01/01 02:16:39;;;;;;;512.55;485.13;;;15.70;99.90;;;;;;5088172;28;20438;-59
2023/01/01 02:19:19;;;;;;;514.95;487.33;;;15.70;99.90;;;;;;5088215;28;20526;-59
2023/01/01 02:22:14;;;;;;;498.52;471.85;;;15.70;99.90;;;;;;5090372;28;20386;-59
2023/01/01 02:24:52;;;;;;;506.58;479.88;;;15.70;99.90;;;;;;5089212;28;20637;-58
2023/01/01 02:27:48;;;;;;;491.02;464.63;;;15.70;99.90;;;;;;5088988;28;20389;-59
2023/01/01 02:30:14;;;;;;;483.15;457.83;;;15.70;99.90;;;;;;5089350;28;20374;-58
2023/01/01 02:32:57;;;;;;;496.17;470.48;;;15.70;99.90;;;;;;5087955;28;20809;-58
2023/01/01 02:35:33;;;;;;;499.87;473.57;;;15.70;99.90;;;;;;5089731;28;20386;-57
2023/01/01 02:38:08;;;;;;;511.42;484.05;;;15.70;99.90;;;;;;5087493;28;20410;-58
2023/01/01 02:40:39;;;;;;;541.30;511.08;;;15.60;99.90;;;;;;5088562;28;20517;-59
2023/01/01 02:43:05;;;;;;;492.48;466.73;;;15.70;99.90;;;;;;5086901;28;20382;-59
2023/01/01 02:45:31;;;;;;;521.88;493.17;;;15.70;99.90;;;;;;5085973;28;20504;-59
2023/01/01 02:48:01;;;;;;;485.45;460.25;;;15.70;99.90;;;;;;5086575;28;20473;-58
2023/01/01 02:50:28;;;;;;;498.73;472.40;;;15.70;99.90;;;;;;5086251;28;20719;-59
2023/01/01 02:53:08;;;;;;;466.67;442.43;;;15.70;99.90;;;;;;5086474;28;20390;-59
2023/01/01 02:56:13;;;;;;;471.33;447.00;;;15.60;99.90;;;;;;5088356;28;20669;-57
2023/01/01 03:02:00;;;;;;;503.08;477.13;;;15.60;99.90;;;;;;5092039;28;20438;-60
2023/01/01 03:04:36;;;;;;;509.48;482.73;;;15.70;99.90;;;;;;5092551;28;20474;-60
2023/01/01 03:07:25;;;;;;;534.85;505.98;;;15.60;99.90;;;;;;5090949;28;20404;-57
2023/01/01 03:10:06;;;;;;;557.50;526.95;;;15.60;99.90;;;;;;5094984;28;20793;-58
2023/01/01 03:12:42;;;;;;;561.83;530.75;;;15.50;99.90;;;;;;5092330;28;20822;-60
2023/01/01 03:15:45;;;;;;;566.80;535.63;;;15.40;99.90;;;;;;5093497;28;20457;-60
2023/01/01 03:18:17;;;;;;;610.10;576.03;;;15.30;99.90;;;;;;5092646;28;20398;-60
2023/01/01 03:20:46;;;;;;;613.47;578.83;;;15.30;99.90;;;;;;5092868;28;20510;-60
2023/01/01 03:23:19;;;;;;;647.15;609.05;;;15.20;99.90;;;;;;5090052;28;20382;-58
2023/01/01 03:25:56;;;;;;;658.42;620.10;;;15.20;99.90;;;;;;5089955;28;20712;-58
2023/01/01 03:28:28;;;;;;;625.45;589.58;;;15.10;99.90;;;;;;5090730;28;20374;-60
2023/01/01 03:30:55;;;;;;;656.38;618.25;;;15.10;99.90;;;;;;5089374;28;20390;-60
2023/01/01 03:33:28;;;;;;;628.58;592.22;;;15.10;99.90;;;;;;5089315;28;20478;-59
2023/01/01 03:36:08;;;;;;;625.57;589.77;;;15.10;99.90;;;;;;5089801;28;20544;-59
2023/01/01 03:38:54;;;;;;;629.92;594.05;;;15.10;99.90;;;;;;5089526;28;20630;-60
2023/01/01 03:41:22;;;;;;;615.28;580.38;;;15.10;99.90;;;;;;5090898;28;20762;-58
2023/01/01 03:43:51;;;;;;;618.65;583.42;;;15.10;99.90;;;;;;5088813;28;20390;-59
2023/01/01 03:46:22;;;;;;;664.95;625.95;;;15.00;99.90;;;;;;5088675;28;20374;-60
2023/01/01 03:48:55;;;;;;;643.10;606.53;;;15.00;99.90;;;;;;5088963;28;20505;-57
2023/01/01 03:51:35;;;;;;;647.40;610.63;;;15.10;99.90;;;;;;5090319;28;20386;-58
2023/01/01 03:54:07;;;;;;;671.78;632.40;;;15.10;99.90;;;;;;5091564;28;20418;-58
2023/01/01 03:56:44;;;;;;;658.40;620.40;;;15.10;99.90;;;;;;5092573;28;20382;-58
2023/01/01 03:59:20;;;;;;;673.83;634.50;;;15.10;99.90;;;;;;5092302;28;20484;-58
2023/01/01 04:01:55;;;;;;;667.53;628.28;;;15.10;99.90;;;;;;5091352;28;20518;-58
2023/01/01 04:04:21;;;;;;;667.83;628.40;;;15.10;99.90;;;;;;5091890;28;21003;-58
2023/01/01 04:06:47;;;;;;;671.03;631.63;;;15.10;99.90;;;;;;5090631;28;20460;-58
2023/01/01 04:09:18;;;;;;;678.13;637.87;;;15.10;99.90;;;;;;5090992;28;20709;-59
2023/01/01 04:12:00;;;;;;;682.78;642.40;;;15.10;99.90;;;;;;5092710;28;20411;-59
2023/01/01 04:14:46;;;;;;;693.50;651.72;;;15.10;99.90;;;;;;5091276;28;20402;-60
2023/01/01 04:20:34;;;;;;;721.67;677.13;;;15.10;99.90;;;;;;5090763;28;20369;-58
2023/01/01 04:23:00;;;;;;;693.97;652.23;;;15.20;99.90;;;;;;5088873;28;20386;-57
2023/01/01 04:25:28;;;;;;;710.55;667.58;;;15.20;99.90;;;;;;5089000;28;20477;-58
2023/01/01 04:27:54;;;;;;;733.72;687.70;;;15.20;99.90;;;;;;5087925;28;20397;-59
2023/01/01 04:30:19;;;;;;;699.70;657.25;;;15.10;99.90;;;;;;5088389;28;20386;-59
2023/01/01 04:32:45;;;;;;;703.33;660.53;;;15.10;99.90;;;;;;5088092;28;20710;-59
2023/01/01 04:35:12;;;;;;;705.72;662.65;;;15.10;99.90;;;;;;5089841;28;20386;-58
2023/01/01 04:37:42;;;;;;;715.42;671.33;;;15.10;99.90;;;;;;5089289;28;20416;-58
2023/01/01 04:40:10;;;;;;;723.72;679.00;;;15.10;99.90;;;;;;5089481;28;20696;-59
2023/01/01 04:42:35;;;;;;;727.45;682.00;;;15.10;99.90;;;;;;5090027;28;20572;-58
2023/01/01 04:45:01;;;;;;;722.53;677.30;;;15.10;99.90;;;;;;5090364;28;20382;-60
2023/01/01 04:47:27;;;;;;;739.90;693.97;;;15.10;99.90;;;;;;5091211;28;20396;-59
2023/01/01 04:49:52;;;;;;;733.53;687.37;;;15.10;99.90;;;;;;5090948;28;20390;-57
2023/01/01 04:52:19;;;;;;;717.90;673.03;;;15.10;99.90;;;;;;5090394;28;20469;-59
2023/01/01 04:54:44;;;;;;;714.80;670.72;;;15.10;99.90;;;;;;5090835;28;20701;-61
2023/01/01 04:57:10;;;;;;;728.85;683.65;;;15.10;99.90;;;;;;5091334;28;20537;-59
2023/01/01 04:59:36;;;;;;;744.05;697.35;;;15.10;99.90;;;;;;5091215;28;20439;-60
2023/01/01 05:02:01;;;;;;;732.23;685.80;;;15.10;99.90;;;;;;5087689;28;20386;-60
2023/01/01 05:04:27;;;;;;;729.70;683.50;;;15.10;99.90;;;;;;5088335;28;20384;-60
2023/01/01 05:06:53;;;;;;;755.60;707.30;;;15.10;99.90;;;;;;5087113;28;20406;-59
2023/01/01 05:09:19;;;;;;;750.40;702.13;;;15.20;99.90;;;;;;5086500;28;20449;-60
2023/01/01 05:11:44;;;;;;;751.33;703.63;;;15.20;99.90;;;;;;5088040;28;20707;-60
2023/01/01 05:14:10;;;;;;;768.07;718.50;;;15.20;99.90;;;;;;5088468;28;20404;-60
2023/01/01 05:16:38;;;;;;;773.10;723.65;;;15.20;99.90;;;;;;5086968;28;20394;-61
2023/01/01 05:19:05;;;;;;;771.63;721.58;;;15.20;99.90;;;;;;5086770;28;20547;-60
2023/01/01 05:21:39;;;;;;;764.38;715.72;;;15.20;99.90;;;;;;5086302;28;20405;-60
2023/01/01 05:24:08;;;;;;;760.83;711.90;;;15.20;99.90;;;;;;5085973;28;20382;-60
2023/01/01 05:26:36;;;;;;;758.92;710.60;;;15.20;99.90;;;;;;5085640;28;20413;-60
2023/01/01 05:29:03;;;;;;;757.10;708.78;;;15.20;99.90;;;;;;5086473;28;20381;-60
2023/01/01 05:31:31;;;;;;;740.40;694.17;;;15.20;99.90;;;;;;5088609;28;20459;-60
2023/01/01 05:33:57;;;;;;;735.10;689.83;;;15.20;99.90;;;;;;5105981;28;20404;-60
2023/01/01 05:36:25;;;;;;;741.63;695.28;;;15.30;99.90;;;;;;5092074;28;20389;-60
2023/01/01 05:38:51;;;;;;;721.85;677.13;;;15.30;99.90;;;;;;5093624;28;20458;-60
2023/01/01 05:41:18;;;;;;;731.13;685.45;;;15.30;99.90;;;;;;5095442;28;20672;-60
2023/01/01 05:43:44;;;;;;;709.80;666.28;;;15.30;99.90;;;;;;5097222;28;20457;-60
2023/01/01 05:46:19;;;;;;;704.03;661.20;;;15.30;99.90;;;;;;5095886;28;20377;-60
2023/01/01 05:48:44;;;;;;;707.67;664.30;;;15.30;99.90;;;;;;5094620;28;20412;-60
2023/01/01 05:51:19;;;;;;;685.78;644.13;;;15.30;99.90;;;;;;5093379;28;20419;-60
2023/01/01 05:53:45;;;;;;;684.85;643.50;;;15.30;99.90;;;;;;5091810;28;20461;-59
2023/01/01 05:56:12;;;;;;;662.13;622.83;;;15.40;99.90;;;;;;5092880;28;20396;-60
2023/01/01 05:58:38;;;;;;;667.53;627.78;;;15.30;99.90;;;;;;5092220;28;20376;-59
2023/01/01 06:01:13;;;;;;;668.33;628.83;;;15.30;99.90;;;;;;5092363;28;20380;-59
2023/01/01 06:03:39;;;;;;;655.05;616.75;;;15.40;99.90;;;;;;5092466;28;20525;-59
2023/01/01 06:06:07;;;;;;;671.30;631.33;;;15.40;99.90;;;;;;5110403;28;20418;-59
2023/01/01 06:08:33;;;;;;;642.35;604.88;;;15.40;99.90;;;;;;5093587;28;20448;-59
2023/01/01 06:11:00;;;;;;;675.72;635.03;;;15.30;99.90;;;;;;5094017;28;20392;-60
2023/01/01 06:13:26;;;;;;;653.70;615.03;;;15.40;99.90;;;;;;5093578;28;20400;-60
2023/01/01 06:15:59;;;;;;;648.10;609.67;;;15.40;99.90;;;;;;5092451;28;20390;-60
2023/01/01 06:18:25;;;;;;;631.00;594.53;;;15.40;99.90;;;;;;5091456;28;20392;-60
2023/01/01 06:20:51;;;;;;;631.47;594.60;;;15.40;99.90;;;;;;5110537;28;20513;-60
2023/01/01 06:23:17;;;;;;;636.17;599.28;;;15.40;99.90;;;;;;5091633;28;20758;-60
2023/01/01 06:25:43;;;;;;;609.22;574.72;;;15.40;99.90;;;;;;5089833;28;20497;-58
2023/01/01 06:28:08;;;;;;;607.27;572.07;;;15.50;99.90;;;;;;5108043;28;20384;-60
2023/01/01 06:30:35;;;;;;;607.80;573.00;;;15.40;99.90;;;;;;5091257;28;20416;-60
2023/01/01 06:33:00;;;;;;;618.03;583.17;;;15.40;99.90;;;;;;5109841;28;20423;-61
2023/01/01 06:35:26;;;;;;;592.03;559.20;;;15.40;99.90;;;;;;5111412;28;20380;-60
2023/01/01 06:37:52;;;;;;;585.17;552.73;;;15.40;99.90;;;;;;5110597;28;20766;-60
2023/01/01 06:40:18;;;;;;;606.50;572.00;;;15.40;99.90;;;;;;5092349;28;21010;-59
2023/01/01 06:42:43;;;;;;;572.78;541.53;;;15.40;99.90;;;;;;5093342;28;21066;-59
2023/01/01 06:45:09;;;;;;;584.03;552.00;;;15.40;99.90;;;;;;5094230;28;20392;-59
2023/01/01 06:47:35;;;;;;;579.05;547.13;;;15.30;99.90;;;;;;5093950;28;20403;-60
2023/01/01 06:50:03;;;;;;;560.55;530.72;;;15.40;99.90;;;;;;5112465;28;20372;-60
2023/01/01 06:52:28;;;;;;;550.78;521.45;;;15.40;99.90;;;;;;5094214;28;20372;-59
2023/01/01 06:54:54;;;;;;;560.58;529.75;;;15.30;99.90;;;;;;5093426;28;20431;-59
2023/01/01 06:57:20;;;;;;;518.00;490.58;;;15.30;99.90;;;;;;5093999;28;20380;-59
2023/01/01 06:59:46;;;;;;;536.17;507.70;;;15.30;99.90;;;;;;5112029;28;20525;-59
2023/01/01 07:02:12;;;;;;;540.95;512.20;;;15.30;99.90;;;;;;5111485;28;20377;-58
2023/01/01 07:04:38;;;;;;;536.13;507.70;;;15.30;99.90;;;;;;5093519;28;20829;-59
2023/01/01 07:07:04;;;;;;;536.25;507.83;;;15.30;99.90;;;;;;5111812;28;20437;-58
2023/01/01 07:09:29;;;;;;;564.83;534.13;;;15.30;99.90;;;;;;5093953;28;20708;-60
2023/01/01 07:11:55;;;;;;;582.85;550.80;;;15.20;99.90;;;;;;5095607;28;20380;-59
2023/01/01 07:14:21;;;;;;;577.87;546.23;;;15.30;99.90;;;;;;5111690;28;20401;-59
2023/01/01 07:16:46;;;;;;;558.37;528.23;;;15.20;99.90;;;;;;5093625;28;20387;-59
2023/01/01 07:19:12;;;;;;;573.93;542.80;;;15.30;99.90;;;;;;5093182;28;20634;-57
2023/01/01 07:21:46;;;;;;;552.63;523.03;;;15.20;99.90;;;;;;5109595;28;20387;-57
2023/01/01 07:24:13;;;;;;;571.03;540.13;;;15.20;99.90;;;;;;5091018;28;20545;-59
2023/01/01 07:26:40;;;;;;;537.65;509.63;;;15.20;99.90;;;;;;5091032;28;20398;-60
2023/01/01 07:29:07;;;;;;;539.28;510.50;;;15.20;99.90;;;;;;5091610;28;20464;-58
2023/01/01 07:31:37;;;;;;;564.15;533.65;;;15.20;99.90;;;;;;5108672;28;20697;-59
2023/01/01 07:34:04;;;;;;;566.65;536.42;;;15.20;99.90;;;;;;5090578;28;20409;-59
2023/01/01 07:36:29;;;;;;;559.90;530.20;;;15.10;99.90;;;;;;5090469;28;20842;-59
2023/01/01 07:38:55;;;;;;;542.73;513.90;;;15.10;99.90;;;;;;5090253;28;20392;-59
2023/01/01 07:41:21;;;;;;;573.80;542.83;;;15.10;99.90;;;;;;5108723;28;20699;-59
2023/01/01 07:43:46;;;;;;;574.72;543.70;;;15.10;99.90;;;;;;5091794;28;20799;-57
2023/01/01 07:46:15;;;;;;;541.57;512.63;;;15.10;99.90;;;;;;5108535;28;20391;-61
2023/01/01 07:48:41;;;;;;;522.92;495.58;;;15.10;99.90;;;;;;5110246;28;20851;-59
2023/01/01 07:51:06;;;;;;;504.58;478.33;;;15.10;99.90;;;;;;5094360;28;20640;-59
2023/01/01 07:53:32;;;;;;;523.17;495.35;;;15.10;99.90;;;;;;5094399;28;20403;-58
2023/01/01 07:55:57;;;;;;;527.60;499.37;;;15.10;99.90;;;;;;5094766;28;20483;-57
2023/01/01 07:58:23;;;;;;;566.67;535.90;;;15.10;99.90;;;;;;5094257;28;20536;-59
2023/01/01 08:00:48;;;;;;;511.40;484.40;;;15.10;99.90;;;;;;5094011;28;20380;-59
2023/01/01 08:03:15;;;;;;;492.50;467.50;;;15.10;99.90;;;;;;5093359;28;20630;-59
2023/01/01 08:05:41;;;;;;;507.38;481.20;;;15.10;99.90;;;;;;5092771;28;20380;-59
2023/01/01 08:08:06;;;;;;;513.97;487.00;;;15.00;99.90;;;;;;5090321;28;20410;-58
2023/01/01 08:10:32;;;;;;;509.70;483.03;;;15.00;99.90;;;;;;5089242;28;20707;-59
2023/01/01 08:13:01;;;;;;;511.65;485.40;;;15.00;99.90;;;;;;5089851;28;20737;-59
2023/01/01 08:15:27;;;;;;;530.73;503.20;;;15.00;99.90;;;;;;5092405;28;20417;-60
2023/01/01 08:17:58;;;;;;;515.90;488.98;;;15.00;99.90;;;;;;5094194;28;20732;-60
2023/01/01 08:20:25;;;;;;;558.77;528.93;;;14.90;99.90;;;;;;5111980;28;20395;-59
2023/01/01 08:22:51;;;;;;;516.05;489.50;;;15.00;99.90;;;;;;5094731;28;20416;-59
2023/01/01 08:25:16;;;;;;;533.20;504.83;;;14.90;99.90;;;;;;5112339;28;20664;-58
2023/01/01 08:27:42;;;;;;;514.58;488.17;;;14.90;99.90;;;;;;5092878;28;20384;-60
2023/01/01 08:30:10;;;;;;;497.15;472.10;;;14.90;99.90;;;;;;5092589;28;20395;-60
2023/01/01 08:32:36;;;;;;;521.30;493.65;;;14.90;99.90;;;;;;5108968;28;20401;-59
2023/01/01 08:35:02;;;;;;;523.40;495.67;;;14.90;99.90;;;;;;5090037;28;20415;-59
2023/01/01 08:37:27;;;;;;;484.52;459.75;;;14.90;99.90;;;;;;5089739;28;20641;-59
2023/01/01 08:39:53;;;;;;;507.83;481.75;;;14.90;99.90;;;;;;5090319;28;20521;-58
2023/01/01 08:42:18;;;;;;;476.37;451.77;;;14.80;99.90;;;;;;5090410;28;20372;-58
2023/01/01 08:44:44;;;;;;;478.98;454.40;;;14.90;99.90;;;;;;5091429;28;20395;-58
2023/01/01 08:47:18;;;;;;;510.80;483.45;;;14.90;99.90;;;;;;5092633;28;20415;-59
2023/01/01 08:49:44;;;;;;;499.10;473.40;;;14.80;99.90;;;;;;5093256;28;20407;-58
2023/01/01 08:52:10;;;;;;;498.88;472.88;;;14.90;99.90;;;;;;5093648;28;20412;-59
2023/01/01 08:54:35;;;;;;;482.42;458.25;;;14.80;99.90;;;;;;5094555;28;20777;-55
2023/01/01 08:57:01;;;;;;;458.27;435.43;;;14.90;99.90;;;;;;5094609;28;20392;-56
2023/01/01 08:59:27;;;;;;;484.43;459.70;;;14.80;99.90;;;;;;5095259;28;20384;-59
2023/01/01 09:01:52;;;;;;;458.98;435.83;;;14.80;99.90;;;;;;5094865;28;20475;-58
2023/01/01 09:04:18;;;;;;;460.13;437.17;;;14.80;99.90;;;;;;5112883;28;20391;-57
2023/01/01 09:06:43;;;;;;;491.87;466.13;;;14.80;99.90;;;;;;5094783;28;20957;-58
2023/01/01 09:09:09;;;;;;;459.67;436.17;;;14.80;99.90;;;;;;5111973;28;20384;-59
2023/01/01 09:11:35;;;;;;;480.00;455.13;;;14.80;99.90;;;;;;5092143;28;20391;-59
2023/01/01 09:14:03;;;;;;;469.05;445.40;;;14.90;99.90;;;;;;5091060;28;20441;-59
2023/01/01 09:16:28;;;;;;;463.60;439.73;;;14.80;99.90;;;;;;5110166;28;20365;-59
2023/01/01 09:18:54;;;;;;;416.20;395.45;;;14.80;99.90;;;;;;5112297;28;20381;-59
2023/01/01 09:21:19;;;;;;;464.23;440.05;;;14.80;99.90;;;;;;5094473;28;20376;-57
2023/01/01 09:23:45;;;;;;;445.90;423.10;;;14.90;99.90;;;;;;5111036;28;20388;-59
2023/01/01 09:26:11;;;;;;;504.37;478.07;;;14.80;99.90;;;;;;5093073;28;20396;-57
2023/01/01 09:28:37;;;;;;;511.95;485.83;;;14.80;99.90;;;;;;5110645;28;20371;-59
2023/01/01 09:31:05;;;;;;;526.33;498.87;;;14.80;99.90;;;;;;5092926;28;20391;-59
2023/01/01 09:33:31;;;;;;;532.55;504.45;;;14.80;99.90;;;;;;5093470;28;20448;-59
2023/01/01 09:36:19;;;;;;;527.22;499.17;;;14.80;99.90;;;;;;5109812;28;20372;-59
2023/01/01 09:38:49;;;;;;;527.58;499.88;;;14.80;99.90;;;;;;5093365;28;20954;-59
2023/01/01 09:41:38;;;;;;;545.97;516.33;;;14.80;99.90;;;;;;5094080;28;21156;-58
2023/01/01 09:44:25;;;;;;;531.17;503.03;;;14.80;99.90;;;;;;5094426;28;20430;-59
2023/01/01 09:46:59;;;;;;;510.88;484.15;;;14.80;99.90;;;;;;5094080;28;20384;-59
2023/01/01 09:49:41;;;;;;;522.75;495.23;;;14.80;99.90;;;;;;5113727;28;20376;-59
2023/01/01 09:52:12;;;;;;;532.53;504.42;;;14.80;99.90;;;;;;5115210;28;20376;-59
2023/01/01 09:54:50;;;;;;;552.42;523.03;;;14.70;99.90;;;;;;5114435;28;21066;-59
2023/01/01 09:57:16;;;;;;;544.58;515.00;;;14.70;99.90;;;;;;5095553;28;20384;-59
2023/01/01 09:59:42;;;;;;;551.45;521.63;;;14.70;99.90;;;;;;5095512;28;20384;-58
2023/01/01 10:02:40;;;;;;;548.67;519.40;;;14.70;99.90;;;;;;5094570;28;20411;-59
2023/01/01 10:05:25;;;;;;;588.55;555.50;;;14.70;99.90;;;;;;5094203;28;20395;-59
2023/01/01 10:08:26;;;;;;;557.35;527.30;;;14.70;99.90;;;;;;5095076;28;20380;-56
2023/01/01 10:11:15;;;;;;;554.63;524.75;;;14.70;99.90;;;;;;5095628;28;20399;-59
2023/01/01 10:13:44;;;;;;;548.23;518.90;;;14.70;99.90;;;;;;5095562;28;20416;-55
2023/01/01 10:16:17;;;;;;;544.03;514.35;;;14.60;99.90;;;;;;5095005;28;20384;-58
2023/01/01 10:18:45;;;;;;;541.65;512.50;;;14.70;99.90;;;;;;5095794;28;20852;-55
2023/01/01 10:21:24;;;;;;;554.25;524.47;;;14.60;99.90;;;;;;5095189;28;20368;-57
2023/01/01 10:23:55;;;;;;;563.88;533.17;;;14.70;99.90;;;;;;5095478;28;20412;-59
2023/01/01 10:26:24;;;;;;;564.17;533.28;;;14.70;99.90;;;;;;5095878;28;20500;-58
2023/01/01 10:29:15;;;;;;;566.85;536.50;;;14.70;99.90;;;;;;5112113;28;20452;-58
2023/01/01 10:31:44;;;;;;;580.42;548.72;;;14.60;99.90;;;;;;5093738;28;20380;-58
2023/01/01 10:34:31;;;;;;;596.13;563.55;;;14.60;99.90;;;;;;5093204;28;20491;-58
2023/01/01 10:36:59;;;;;;;579.30;547.90;;;14.60;99.90;;;;;;5093680;28;20599;-57
2023/01/01 10:39:26;;;;;;;573.50;542.50;;;14.60;99.90;;;;;;5093841;28;20396;-59
2023/01/01 10:41:52;;;;;;;565.42;535.33;;;14.60;99.90;;;;;;5110911;28;20437;-59
2023/01/01 10:44:29;;;;;;;516.83;490.05;;;14.60;99.90;;;;;;5093780;28;20392;-58
2023/01/01 10:47:12;;;;;;;542.75;514.05;;;14.60;99.90;;;;;;5092347;28;20856;-60
2023/01/01 10:49:53;;;;;;;535.28;506.40;;;14.80;99.90;;;;;;5093060;28;20391;-58
2023/01/01 10:52:44;;;;;;;545.20;515.55;;;14.90;99.90;;;;;;5111572;28;20858;-59
2023/01/01 10:55:20;;;;;;;544.60;515.05;;;15.00;99.90;;;;;;5094875;28;20408;-59
2023/01/01 10:57:45;;;;;;;512.05;485.13;;;15.00;99.90;;;;;;5095212;28;20856;-59
2023/01/01 11:00:20;;;;;;;467.27;443.40;;;15.10;99.90;;;;;;5096881;28;20423;-55
2023/01/01 11:02:45;;;;;;;424.50;403.17;;;15.10;99.90;;;;;;5095831;28;20401;-60
2023/01/01 11:05:20;;;;;;;412.60;392.20;;;15.10;99.90;;;;;;5113998;28;20384;-59
2023/01/01 11:07:46;;;;;;;413.20;392.80;;;15.20;99.90;;;;;;5114726;28;20427;-59
2023/01/01 11:10:22;;;;;;;420.30;399.00;;;15.20;99.90;;;;;;5095814;28;20427;-59
2023/01/01 11:12:49;;;;;;;471.65;447.55;;;15.20;99.90;;;;;;5094861;28;20780;-57
2023/01/01 11:15:39;;;;;;;500.13;473.48;;;15.20;99.90;;;;;;5093696;28;20388;-60
2023/01/01 11:18:12;;;;;;;469.77;445.92;;;15.30;99.90;;;;;;5093421;28;20410;-60
2023/01/01 11:20:37;;;;;;;472.83;448.75;;;15.30;99.90;;;;;;5094971;28;20626;-60
2023/01/01 11:23:38;;;;;;;459.85;436.08;;;15.30;99.90;;;;;;5093129;28;21058;-59
2023/01/01 11:26:11;;;;;;;489.85;463.25;;;15.30;99.90;;;;;;5094160;28;20823;-60
2023/01/01 11:28:38;;;;;;;407.60;386.95;;;15.20;99.90;;;;;;5094611;28;20487;-60
2023/01/01 11:31:11;;;;;;;435.58;413.45;;;15.20;99.90;;;;;;5094220;28;20823;-58
2023/01/01 11:33:55;;;;;;;426.75;405.00;;;15.20;99.90;;;;;;5093364;28;20412;-59
2023/01/01 11:36:32;;;;;;;428.90;407.27;;;15.20;99.90;;;;;;5109467;28;20403;-59
2023/01/01 11:39:19;;;;;;;414.88;394.05;;;15.20;99.90;;;;;;5110437;28;20481;-58
2023/01/01 11:41:50;;;;;;;443.38;421.08;;;15.20;99.90;;;;;;5092487;28;20403;-58
2023/01/01 11:44:43;;;;;;;432.55;410.55;;;15.30;99.90;;;;;;5108586;28;20460;-58
2023/01/01 11:47:31;;;;;;;439.23;416.80;;;15.30;99.90;;;;;;5107532;28;20379;-56
2023/01/01 11:50:10;;;;;;;417.80;396.38;;;15.20;99.90;;;;;;5089541;28;20380;-58
2023/01/01 11:52:45;;;;;;;420.92;399.58;;;15.10;99.90;;;;;;5086941;28;20380;-58
2023/01/01 11:55:21;;;;;;;413.90;393.30;;;15.10;99.90;;;;;;5097780;28;20470;-58
2023/01/01 11:58:10;;;;;;;438.17;415.63;;;15.10;99.90;;;;;;5079700;28;20754;-58
2023/01/01 12:00:36;;;;;;;435.73;413.25;;;15.00;99.90;;;;;;5086961;28;20954;-58
2023/01/01 12:03:15;;;;;;;439.70;417.02;;;15.00;99.90;;;;;;5107862;28;20379;-58
2023/01/01 12:05:57;;;;;;;438.23;416.15;;;14.90;99.90;;;;;;5089218;28;20491;-58
2023/01/01 12:08:43;;;;;;;430.73;408.67;;;14.90;99.90;;;;;;5106601;28;20996;-58
2023/01/01 12:11:22;;;;;;;477.92;453.20;;;14.90;99.90;;;;;;5091447;28;20388;-52
2023/01/01 12:13:58;;;;;;;451.35;428.45;;;14.90;99.90;;;;;;5091844;28;20396;-50
2023/01/01 12:16:46;;;;;;;441.67;419.52;;;14.90;99.90;;;;;;5107880;28;20377;-59
2023/01/01 12:19:26;;;;;;;454.98;431.30;;;15.10;99.90;;;;;;5088208;28;20448;-58
2023/01/01 12:21:58;;;;;;;460.45;436.70;;;15.30;99.90;;;;;;5086522;28;20467;-59
2023/01/01 12:24:33;;;;;;;440.05;417.13;;;15.30;99.90;;;;;;5086540;28;20403;-58
2023/01/01 12:27:30;;;;;;;433.77;411.00;;;15.30;99.90;;;;;;5083733;28;20372;-57
2023/01/01 12:30:09;;;;;;;451.45;427.90;;;15.30;99.90;;;;;;5102395;28;20376;-59
2023/01/01 12:32:54;;;;;;;474.77;449.73;;;15.50;99.90;;;;;;5102802;28;20466;-56
2023/01/01 12:35:34;;;;;;;469.95;445.40;;;15.60;99.90;;;;;;5103757;28;20380;-54